Time;durP1;ratioP1;P1;durP2;ratioP2;P2;SDS_P1;SDS_P2;PMS_P1;PMS_P2;Temp;Humidity;BMP_temperature;BMP_pressure;BME280_temperature;BME280_humidity;BME280_pressure;Samples;Min_cycle;Max_cycle;Signal;HPM_P1;HPM_P2
2022/03/30 00:00:15;;;;;;;2.78;2.50;;;22.50;44.80;;;;;;6296023;27;20032;-43
2022/03/30 00:03:17;;;;;;;2.83;2.45;;;22.80;45.10;;;;;;6274436;28;20070;-42
2022/03/30 00:06:19;;;;;;;2.63;2.42;;;22.40;44.90;;;;;;6284734;27;20035;-44
2022/03/30 00:09:20;;;;;;;2.22;2.03;;;22.60;45.00;;;;;;6285801;27;20086;-41
2022/03/30 00:12:21;;;;;;;2.50;2.30;;;22.50;45.00;;;;;;6271953;28;20032;-42
2022/03/30 00:15:24;;;;;;;;;;;22.50;45.60;;;;;;6287925;28;20988;-42
2022/03/30 00:18:26;;;;;;;3.88;2.40;;;22.60;45.10;;;;;;6271163;28;20000;-41
2022/03/30 00:21:27;;;;;;;2.60;2.35;;;22.60;45.00;;;;;;6294009;28;20039;-42
2022/03/30 00:24:29;;;;;;;2.88;2.55;;;22.40;45.00;;;;;;6285671;28;20193;-42
2022/03/30 00:27:30;;;;;;;2.40;2.20;;;22.50;45.10;;;;;;6277964;27;20044;-42
2022/03/30 00:30:33;;;;;;;2.72;2.47;;;22.40;45.10;;;;;;6294000;28;20043;-45
2022/03/30 00:33:34;;;;;;;2.85;2.45;;;22.50;45.20;;;;;;6291587;28;20042;-42
2022/03/30 00:36:36;;;;;;;3.80;2.20;;;22.50;45.40;;;;;;6291985;27;20046;-43
2022/03/30 00:39:37;;;;;;;2.75;2.25;;;22.50;45.30;;;;;;6288303;28;20914;-44
2022/03/30 00:42:39;;;;;;;2.00;1.80;;;22.40;45.20;;;;;;6274330;28;20031;-42
2022/03/30 00:45:41;;;;;;;3.10;2.40;;;22.50;45.30;;;;;;6284056;27;20048;-41
2022/03/30 00:48:43;;;;;;;2.55;2.25;;;22.50;45.30;;;;;;6250071;28;20038;-44
2022/03/30 00:51:45;;;;;;;2.78;2.15;;;22.50;45.30;;;;;;6273222;28;20098;-42
2022/03/30 00:54:50;;;;;;;2.60;2.08;;;22.40;45.20;;;;;;6275871;28;20040;-41
2022/03/30 00:57:53;;;;;;;2.47;1.98;;;22.50;45.40;;;;;;6270953;28;20719;-43
2022/03/30 01:00:57;;;;;;;2.20;2.00;;;22.50;45.30;;;;;;6281053;27;20032;-41
2022/03/30 01:04:02;;;;;;;2.35;2.15;;;22.60;45.40;;;;;;6301574;27;20047;-42
2022/03/30 01:07:05;;;;;;;2.65;2.00;;;22.40;45.30;;;;;;6302235;28;20036;-41
2022/03/30 01:10:09;;;;;;;2.20;2.00;;;22.60;45.40;;;;;;6291258;27;20067;-41
2022/03/30 01:13:11;;;;;;;2.40;2.20;;;22.50;45.30;;;;;;6283148;28;20047;-43
2022/03/30 01:16:14;;;;;;;2.40;1.85;;;22.50;45.30;;;;;;6298414;27;20028;-41
2022/03/30 01:19:16;;;;;;;2.05;1.85;;;22.50;45.20;;;;;;6283895;28;21274;-41
2022/03/30 01:22:18;;;;;;;2.97;2.08;;;22.50;45.20;;;;;;6297739;28;20091;-42
2022/03/30 01:25:20;;;;;;;2.33;2.13;;;22.50;45.20;;;;;;6300290;27;20046;-40
2022/03/30 01:28:27;;;;;;;2.17;1.75;;;22.50;45.20;;;;;;6281437;28;20036;-41
2022/03/30 01:34:45;;;;;;;2.47;2.03;;;22.50;45.30;;;;;;6291295;28;20046;-41
2022/03/30 01:37:47;;;;;;;2.58;2.05;;;22.40;45.10;;;;;;6287234;28;20168;-41
2022/03/30 01:40:49;;;;;;;2.42;2.20;;;22.40;45.10;;;;;;6301765;27;20043;-41
2022/03/30 01:43:50;;;;;;;3.08;2.30;;;22.40;45.10;;;;;;6290106;28;21036;-41
2022/03/30 01:46:52;;;;;;;2.83;2.20;;;22.50;45.20;;;;;;6291249;28;20153;-41
2022/03/30 01:49:54;;;;;;;2.60;2.20;;;22.50;45.10;;;;;;6283528;28;20078;-44
2022/03/30 01:52:57;;;;;;;2.30;2.10;;;22.40;45.10;;;;;;6287119;28;20824;-41
2022/03/30 01:55:58;;;;;;;2.55;2.25;;;22.50;45.10;;;;;;6284063;28;20032;-41
2022/03/30 01:59:00;;;;;;;2.10;1.90;;;22.60;45.10;;;;;;6279652;28;20172;-41
2022/03/30 02:02:02;;;;;;;2.25;2.05;;;22.50;45.10;;;;;;6295280;27;20035;-41
2022/03/30 02:05:05;;;;;;;2.83;2.17;;;22.50;45.10;;;;;;6271664;28;20101;-43
2022/03/30 02:08:08;;;;;;;2.45;1.83;;;22.60;45.10;;;;;;6277350;28;20046;-41
2022/03/30 02:11:09;;;;;;;2.17;1.88;;;22.40;44.90;;;;;;6271272;28;20059;-41
2022/03/30 02:14:11;;;;;;;2.80;2.20;;;22.50;45.00;;;;;;6290423;27;20163;-42
2022/03/30 02:17:12;;;;;;;2.45;2.08;;;22.60;45.00;;;;;;6279692;28;20040;-42
2022/03/30 02:20:14;;;;;;;2.30;1.95;;;22.60;45.00;;;;;;6267674;28;20090;-42
2022/03/30 02:23:16;;;;;;;2.88;2.00;;;22.40;44.90;;;;;;6273277;28;20046;-41
2022/03/30 02:26:18;;;;;;;2.03;1.60;;;22.60;44.90;;;;;;6289346;28;20059;-44
2022/03/30 02:29:19;;;;;;;2.00;1.77;;;22.40;44.80;;;;;;6276247;28;20040;-43
2022/03/30 02:32:23;;;;;;;2.70;2.20;;;22.60;44.90;;;;;;6275115;28;20071;-43
2022/03/30 02:35:24;;;;;;;2.10;1.90;;;22.60;44.90;;;;;;6282780;27;20035;-42
2022/03/30 02:38:27;;;;;;;2.30;1.75;;;22.60;44.80;;;;;;6300086;27;20086;-41
2022/03/30 02:41:28;;;;;;;2.08;1.73;;;22.60;44.80;;;;;;6293680;28;20109;-41
2022/03/30 02:44:30;;;;;;;2.22;1.70;;;22.50;44.70;;;;;;6286484;28;20143;-41
2022/03/30 02:50:45;;;;;;;2.00;1.80;;;22.60;44.70;;;;;;6300915;27;20049;-41
2022/03/30 02:53:48;;;;;;;2.55;1.70;;;22.60;44.60;;;;;;6247455;28;20871;-41
2022/03/30 02:56:49;;;;;;;2.13;1.73;;;22.50;44.60;;;;;;6283209;27;20070;-42
2022/03/30 02:59:51;;;;;;;1.85;1.67;;;22.60;44.80;;;;;;6283955;28;20052;-42
2022/03/30 03:02:52;;;;;;;2.15;1.80;;;22.60;44.70;;;;;;6286721;27;20042;-41
2022/03/30 03:05:54;;;;;;;2.13;1.80;;;22.50;44.70;;;;;;6267559;28;20895;-41
2022/03/30 03:08:57;;;;;;;2.53;1.52;;;22.60;44.80;;;;;;6276700;28;20232;-41
2022/03/30 03:11:58;;;;;;;2.58;1.85;;;22.60;45.30;;;;;;6284442;28;20039;-40
2022/03/30 03:15:00;;;;;;;2.97;2.10;;;22.50;44.60;;;;;;6284315;28;20050;-42
2022/03/30 03:18:03;;;;;;;2.20;1.80;;;22.50;44.70;;;;;;6293295;28;20158;-42
2022/03/30 03:21:05;;;;;;;2.50;1.90;;;22.40;44.70;;;;;;6262882;28;21041;-41
2022/03/30 03:24:07;;;;;;;2.25;1.60;;;22.50;44.70;;;;;;6282505;28;20435;-41
2022/03/30 03:27:08;;;;;;;2.35;1.77;;;22.60;44.70;;;;;;6291562;28;20055;-41
2022/03/30 03:30:11;;;;;;;2.38;1.80;;;22.50;44.60;;;;;;6293018;28;20194;-41
2022/03/30 03:33:12;;;;;;;2.05;1.75;;;22.50;44.60;;;;;;6298234;27;20048;-42
2022/03/30 03:36:15;;;;;;;2.15;1.80;;;22.60;44.60;;;;;;6295041;28;20683;-42
2022/03/30 03:39:17;;;;;;;2.85;1.85;;;22.60;44.70;;;;;;6277793;28;20047;-41
2022/03/30 03:42:19;;;;;;;2.67;1.92;;;22.60;44.70;;;;;;6289778;27;24222;-41
2022/03/30 03:45:20;;;;;;;3.25;2.05;;;22.40;44.60;;;;;;6270967;28;41533;-41
2022/03/30 03:48:22;;;;;;;3.38;2.28;;;22.50;44.70;;;;;;6294884;27;30559;-41
2022/03/30 03:51:24;;;;;;;2.35;2.10;;;22.50;44.80;;;;;;6285394;28;30240;-43
2022/03/30 03:54:26;;;;;;;2.88;1.90;;;22.50;44.80;;;;;;6288544;27;20055;-42
2022/03/30 03:57:27;;;;;;;2.33;2.08;;;22.50;44.90;;;;;;6280773;28;20035;-41
2022/03/30 04:00:28;;;;;;;2.78;2.20;;;22.50;44.90;;;;;;6288873;28;39126;-41
2022/03/30 04:03:30;;;;;;;2.70;2.20;;;22.40;44.90;;;;;;6273297;28;20040;-42
2022/03/30 04:06:32;;;;;;;3.17;2.38;;;22.40;44.90;;;;;;6286661;27;20944;-43
2022/03/30 04:09:34;;;;;;;2.60;2.05;;;22.40;45.00;;;;;;6280214;28;20043;-43
2022/03/30 04:12:36;;;;;;;3.38;2.13;;;22.50;45.10;;;;;;6281484;27;20089;-41
2022/03/30 04:15:38;;;;;;;3.47;2.40;;;22.40;45.00;;;;;;6263022;28;20053;-41
2022/03/30 04:18:40;;;;;;;3.13;2.15;;;22.40;45.10;;;;;;6289110;27;20039;-42
2022/03/30 04:21:42;;;;;;;4.82;2.80;;;22.30;45.00;;;;;;6271601;27;20584;-42
2022/03/30 04:24:44;;;;;;;3.88;2.83;;;22.40;45.10;;;;;;6286169;28;20448;-41
2022/03/30 04:27:46;;;;;;;3.20;2.30;;;22.40;45.10;;;;;;6281954;28;20042;-41
2022/03/30 04:30:48;;;;;;;3.03;2.65;;;22.40;45.20;;;;;;6253304;28;20534;-41
2022/03/30 04:33:49;;;;;;;3.25;2.67;;;22.40;45.10;;;;;;6258955;27;20039;-42
2022/03/30 04:36:51;;;;;;;4.03;2.80;;;22.20;45.10;;;;;;6268810;28;20953;-43
2022/03/30 04:39:53;;;;;;;4.53;3.20;;;22.40;45.20;;;;;;6285697;28;20039;-41
2022/03/30 04:42:55;;;;;;;4.35;2.60;;;22.40;45.20;;;;;;6281953;28;20046;-42
2022/03/30 04:45:57;;;;;;;6.18;2.92;;;22.40;45.30;;;;;;6288364;27;20120;-42
2022/03/30 04:48:59;;;;;;;6.10;3.65;;;22.40;45.30;;;;;;6290835;27;20032;-41
2022/03/30 04:52:00;;;;;;;7.85;3.65;;;22.40;45.30;;;;;;6271012;28;20059;-45
2022/03/30 04:55:03;;;;;;;6.35;3.30;;;22.40;45.30;;;;;;6273265;28;20031;-41
2022/03/30 04:58:04;;;;;;;6.57;3.85;;;22.20;45.10;;;;;;6290803;28;20043;-42
2022/03/30 05:01:07;;;;;;;7.05;3.67;;;22.40;45.30;;;;;;6274077;28;20039;-41
2022/03/30 05:04:09;;;;;;;6.40;3.88;;;22.40;45.30;;;;;;6285359;27;20046;-41
2022/03/30 05:07:11;;;;;;;6.38;3.85;;;22.40;45.30;;;;;;6290882;28;20039;-40
2022/03/30 05:10:14;;;;;;;5.68;3.60;;;22.40;45.30;;;;;;6286980;27;20040;-45
2022/03/30 05:13:16;;;;;;;7.13;3.47;;;22.30;45.30;;;;;;6274482;28;21191;-41
2022/03/30 05:16:17;;;;;;;5.50;3.70;;;22.40;45.20;;;;;;6277249;27;20031;-41
2022/03/30 05:19:19;;;;;;;6.38;4.00;;;22.30;45.20;;;;;;6291404;28;20034;-40
2022/03/30 05:22:21;;;;;;;6.22;3.55;;;22.40;45.20;;;;;;6281985;28;20122;-40
2022/03/30 05:25:23;;;;;;;5.82;3.67;;;22.30;45.10;;;;;;6253822;27;20124;-41
2022/03/30 05:28:25;;;;;;;6.53;4.00;;;22.40;45.20;;;;;;6278771;27;20086;-41
2022/03/30 05:31:26;;;;;;;7.28;3.75;;;22.30;45.10;;;;;;6254633;28;20072;-41
2022/03/30 05:34:28;;;;;;;5.53;3.35;;;22.30;45.10;;;;;;6263602;28;20098;-44
2022/03/30 05:37:31;;;;;;;5.88;3.65;;;22.40;45.10;;;;;;6274409;27;20035;-41
2022/03/30 05:40:33;;;;;;;6.00;3.15;;;22.30;45.10;;;;;;6283666;27;20039;-42
2022/03/30 05:43:35;;;;;;;5.07;2.80;;;22.40;45.10;;;;;;6261561;28;20076;-41
2022/03/30 05:46:36;;;;;;;5.00;3.15;;;22.30;45.00;;;;;;6272761;27;20132;-42
2022/03/30 05:49:38;;;;;;;3.72;2.70;;;22.40;45.00;;;;;;6283462;27;27584;-41
2022/03/30 05:52:40;;;;;;;4.38;2.80;;;22.50;45.00;;;;;;6268294;28;20044;-41
2022/03/30 05:55:44;;;;;;;4.40;3.03;;;22.50;44.90;;;;;;6265973;28;20162;-40
2022/03/30 05:58:46;;;;;;;6.13;3.15;;;22.50;44.90;;;;;;6238345;28;20638;-40
2022/03/30 06:01:47;;;;;;;4.82;3.03;;;22.50;44.80;;;;;;6251932;28;20140;-40
2022/03/30 06:04:50;;;;;;;5.80;3.40;;;22.50;44.80;;;;;;6261504;27;20043;-41
2022/03/30 06:07:52;;;;;;;6.95;4.25;;;22.50;44.80;;;;;;6255355;28;20053;-41
2022/03/30 06:10:54;;;;;;;7.85;4.20;;;22.50;44.80;;;;;;6258820;27;20063;-42
2022/03/30 06:13:58;;;;;;;9.73;4.45;;;22.50;44.80;;;;;;6244381;28;20111;-42
2022/03/30 06:17:00;;;;;;;10.02;5.05;;;22.50;44.80;;;;;;6247178;28;20046;-40
2022/03/30 06:20:04;;;;;;;9.80;5.18;;;22.60;44.90;;;;;;6243504;28;20113;-42
2022/03/30 06:23:06;;;;;;;7.57;4.25;;;22.60;44.90;;;;;;6254222;27;20048;-41
2022/03/30 06:26:08;;;;;;;8.98;4.78;;;22.50;44.80;;;;;;6233573;27;20075;-41
2022/03/30 06:29:10;;;;;;;9.15;4.63;;;22.60;44.90;;;;;;6237427;28;21985;-41
2022/03/30 06:32:12;;;;;;;10.13;5.10;;;22.50;44.80;;;;;;6231477;28;21221;-41
2022/03/30 06:35:13;;;;;;;7.30;4.20;;;22.70;45.00;;;;;;6206653;27;20044;-41
2022/03/30 06:38:15;;;;;;;9.00;4.05;;;22.50;44.80;;;;;;6214161;27;20041;-40
2022/03/30 06:41:18;;;;;;;7.47;3.80;;;22.60;44.80;;;;;;6207902;28;20043;-41
2022/03/30 06:44:19;;;;;;;6.63;4.30;;;22.50;44.80;;;;;;6218968;27;20035;-41
2022/03/30 06:47:21;;;;;;;7.97;3.92;;;22.60;44.80;;;;;;6199950;27;20044;-41
2022/03/30 06:50:24;;;;;;;5.78;3.55;;;22.80;44.90;;;;;;6178438;27;20047;-41
2022/03/30 06:53:26;;;;;;;6.72;3.90;;;22.70;45.50;;;;;;6168891;27;20040;-40
2022/03/30 06:56:28;;;;;;;5.65;3.40;;;22.70;45.00;;;;;;6150269;28;20162;-40
2022/03/30 06:59:30;;;;;;;7.25;3.38;;;22.70;45.10;;;;;;6132556;27;20134;-40
2022/03/30 07:02:31;;;;;;;6.60;3.30;;;22.70;45.20;;;;;;6095927;27;20187;-41
2022/03/30 07:05:33;;;;;;;5.50;3.17;;;22.80;45.40;;;;;;6105989;27;21172;-44
2022/03/30 07:11:52;;;;;;;5.85;3.30;;;22.80;45.50;;;;;;6114379;27;20044;-42
2022/03/30 07:14:53;;;;;;;6.40;3.53;;;22.80;45.60;;;;;;6069190;27;21140;-43
2022/03/30 07:17:57;;;;;;;4.10;2.83;;;22.80;45.60;;;;;;6061218;27;20049;-43
2022/03/30 07:21:04;;;;;;;4.30;3.33;;;22.90;45.70;;;;;;6079260;27;20109;-43
2022/03/30 07:24:06;;;;;;;4.72;2.88;;;22.90;45.70;;;;;;6091354;27;20031;-42
2022/03/30 07:27:08;;;;;;;9.13;3.30;;;22.90;45.70;;;;;;6076467;27;20039;-43
2022/03/30 07:30:12;;;;;;;4.22;2.60;;;22.90;45.70;;;;;;6065293;27;22397;-44
2022/03/30 07:33:13;;;;;;;5.75;3.13;;;22.90;45.90;;;;;;6078993;28;20036;-45
2022/03/30 07:36:15;;;;;;;6.63;3.03;;;23.00;45.90;;;;;;6066648;27;22002;-44
2022/03/30 07:39:17;;;;;;;5.32;3.00;;;23.00;46.00;;;;;;6047710;27;20074;-43
2022/03/30 07:42:19;;;;;;;4.88;2.60;;;23.00;46.00;;;;;;6084708;27;20039;-43
2022/03/30 07:45:21;;;;;;;4.28;2.55;;;23.00;46.10;;;;;;6068149;27;20373;-44
2022/03/30 07:48:22;;;;;;;5.43;2.70;;;23.10;46.10;;;;;;6081437;27;20046;-45
2022/03/30 07:51:24;;;;;;;3.42;2.50;;;23.10;46.10;;;;;;6098403;27;20816;-42
2022/03/30 07:54:26;;;;;;;3.33;2.22;;;23.10;45.90;;;;;;6061252;27;20036;-41
2022/03/30 07:57:28;;;;;;;3.88;2.42;;;23.20;45.80;;;;;;6063319;27;20644;-42
2022/03/30 08:00:30;;;;;;;3.05;2.40;;;23.20;45.70;;;;;;6079914;27;20184;-42
2022/03/30 08:03:32;;;;;;;2.67;2.13;;;23.20;45.60;;;;;;6081778;27;20048;-44
2022/03/30 08:06:34;;;;;;;4.00;2.70;;;23.20;46.10;;;;;;6098528;27;20072;-45
2022/03/30 08:09:35;;;;;;;5.57;2.38;;;23.20;45.40;;;;;;6126192;27;20158;-44
2022/03/30 08:12:40;;;;;;;3.03;2.20;;;23.20;45.20;;;;;;6075112;27;21124;-43
2022/03/30 08:15:45;;;;;;;2.58;1.83;;;23.30;45.20;;;;;;6057517;27;20092;-42
2022/03/30 08:18:47;;;;;;;2.88;2.25;;;23.30;45.10;;;;;;6047316;28;20059;-42
2022/03/30 08:25:07;;;;;;;3.88;2.15;;;23.30;44.90;;;;;;6046666;28;20141;-44
2022/03/30 08:28:09;;;;;;;3.35;2.17;;;23.40;45.00;;;;;;6055645;27;20144;-41
2022/03/30 08:31:11;;;;;;;3.05;2.10;;;23.40;44.90;;;;;;6077394;27;21046;-41
2022/03/30 08:34:14;;;;;;;2.70;1.80;;;23.40;44.90;;;;;;6076137;27;20075;-41
2022/03/30 08:37:17;;;;;;;2.63;2.05;;;23.40;44.80;;;;;;6066904;27;20165;-42
2022/03/30 08:40:18;;;;;;;2.70;1.73;;;23.40;44.80;;;;;;6065347;27;20055;-43
2022/03/30 08:43:20;;;;;;;2.35;1.90;;;23.40;44.80;;;;;;6100198;27;20339;-44
2022/03/30 08:46:22;;;;;;;2.90;2.20;;;23.40;44.70;;;;;;6075852;27;20040;-42
2022/03/30 08:49:24;;;;;;;2.33;1.75;;;23.40;44.60;;;;;;6095976;27;21389;-43
2022/03/30 08:52:26;;;;;;;2.00;1.67;;;23.40;44.60;;;;;;6069829;28;21654;-44
2022/03/30 08:55:28;;;;;;;2.33;1.83;;;23.40;44.70;;;;;;6077738;27;20039;-42
2022/03/30 08:58:30;;;;;;;2.38;1.58;;;23.40;44.50;;;;;;6084429;27;20057;-45
2022/03/30 09:01:33;;;;;;;3.08;1.60;;;23.50;44.60;;;;;;6069409;27;20088;-43
2022/03/30 09:04:35;;;;;;;2.28;1.65;;;23.50;44.70;;;;;;6062389;28;20140;-42
2022/03/30 09:07:36;;;;;;;2.20;1.70;;;23.50;44.60;;;;;;6048054;27;22270;-41
2022/03/30 09:10:39;;;;;;;2.33;1.85;;;23.50;44.60;;;;;;6070237;27;20040;-42
2022/03/30 09:13:42;;;;;;;2.90;1.70;;;23.50;45.00;;;;;;6082492;27;20043;-44
2022/03/30 09:16:45;;;;;;;2.00;1.80;;;23.60;44.50;;;;;;6047557;27;21144;-43
2022/03/30 09:19:52;;;;;;;1.90;1.40;;;23.50;44.40;;;;;;6045340;27;20040;-42
2022/03/30 09:22:56;;;;;;;2.17;1.70;;;23.60;44.40;;;;;;6101535;27;21168;-44
2022/03/30 09:26:17;;;;;;;2.60;2.03;;;23.60;44.40;;;;;;6058562;27;22063;-43
2022/03/30 09:29:20;;;;;;;1.98;1.58;;;23.60;44.30;;;;;;6056127;27;22266;-42
2022/03/30 09:32:25;;;;;;;2.33;1.52;;;23.60;44.30;;;;;;6093639;27;20043;-44
2022/03/30 09:35:30;;;;;;;3.45;1.70;;;23.60;44.30;;;;;;6073198;27;20162;-43
2022/03/30 09:38:37;;;;;;;2.03;1.38;;;23.60;44.20;;;;;;6080225;28;20032;-43
2022/03/30 09:41:48;;;;;;;1.80;1.42;;;23.60;44.10;;;;;;6039899;27;20096;-45
2022/03/30 09:44:53;;;;;;;1.95;1.17;;;23.60;44.10;;;;;;6074658;28;20040;-43
2022/03/30 09:47:55;;;;;;;2.00;1.63;;;23.60;44.00;;;;;;6050167;28;20055;-44
2022/03/30 09:50:57;;;;;;;1.65;1.50;;;23.70;44.00;;;;;;6087070;28;20040;-44
2022/03/30 09:53:59;;;;;;;1.95;1.50;;;23.60;43.90;;;;;;6067801;28;20044;-42
2022/03/30 09:57:01;;;;;;;3.17;1.60;;;23.70;43.90;;;;;;6065718;28;20042;-43
2022/03/30 10:00:08;;;;;;;2.65;1.33;;;23.70;43.70;;;;;;6101719;27;20047;-43
2022/03/30 10:03:10;;;;;;;2.67;1.50;;;23.60;43.60;;;;;;6035575;27;20140;-44
2022/03/30 10:06:15;;;;;;;2.53;1.50;;;23.70;43.70;;;;;;6050252;27;20064;-43
2022/03/30 10:09:17;;;;;;;1.83;1.40;;;23.60;43.60;;;;;;6074056;27;20045;-42
2022/03/30 10:12:19;;;;;;;2.40;1.50;;;23.70;43.80;;;;;;6079461;28;20059;-43
2022/03/30 10:15:22;;;;;;;1.50;1.40;;;23.60;43.50;;;;;;6092566;27;20140;-42
2022/03/30 10:18:23;;;;;;;1.73;1.30;;;23.70;43.50;;;;;;6099790;27;20035;-45
2022/03/30 10:21:30;;;;;;;2.35;1.27;;;23.80;43.50;;;;;;6117921;27;21377;-44
2022/03/30 10:24:49;;;;;;;3.10;1.80;;;23.70;43.40;;;;;;6103406;28;20040;-44
2022/03/30 10:27:54;;;;;;;2.65;1.55;;;23.70;43.40;;;;;;6098888;27;20169;-44
2022/03/30 10:30:57;;;;;;;2.88;1.40;;;23.70;43.30;;;;;;6126369;27;20049;-45
2022/03/30 10:34:23;;;;;;;3.47;1.63;;;23.70;43.20;;;;;;6059805;28;20044;-43
2022/03/30 10:37:27;;;;;;;2.55;1.42;;;23.80;43.20;;;;;;6102228;28;20118;-46
2022/03/30 10:40:29;;;;;;;2.40;1.73;;;23.80;43.10;;;;;;6163967;27;20102;-46
2022/03/30 10:43:31;;;;;;;2.22;1.80;;;23.80;43.10;;;;;;6175236;27;20161;-45
2022/03/30 10:46:37;;;;;;;3.75;2.75;;;23.70;42.90;;;;;;6141198;27;20230;-45
2022/03/30 10:49:43;;;;;;;2.55;1.88;;;23.70;42.70;;;;;;6150093;27;33941;-46
2022/03/30 10:52:47;;;;;;;3.17;2.30;;;23.70;42.70;;;;;;6089537;28;20870;-45
2022/03/30 10:55:48;;;;;;;2.35;1.80;;;23.70;42.60;;;;;;6111539;28;20055;-46
2022/03/30 10:59:09;;;;;;;3.28;1.85;;;23.70;43.20;;;;;;6164525;27;20870;-45
2022/03/30 11:02:13;;;;;;;2.88;2.03;;;23.70;42.50;;;;;;6147247;28;21719;-45
2022/03/30 11:05:17;;;;;;;2.65;1.70;;;23.70;42.50;;;;;;6141517;27;20995;-45
2022/03/30 11:08:45;;;;;;;2.75;1.60;;;23.70;42.40;;;;;;6141888;28;20212;-45
2022/03/30 11:11:56;;;;;;;2.70;1.58;;;23.70;42.40;;;;;;6191717;28;20215;-47
2022/03/30 11:15:00;;;;;;;;;;;23.70;42.30;;;;;;6157148;27;20087;-47
2022/03/30 11:18:17;;;;;;;1.75;1.30;;;23.70;42.30;;;;;;6158393;27;21392;-43
2022/03/30 11:21:19;;;;;;;1.70;1.40;;;23.80;42.30;;;;;;6177613;27;20194;-46
2022/03/30 11:24:23;;;;;;;2.58;1.50;;;23.70;42.20;;;;;;6175993;27;20381;-44
2022/03/30 11:27:24;;;;;;;2.05;1.70;;;23.70;42.20;;;;;;6148582;27;20051;-45
2022/03/30 11:30:29;;;;;;;2.50;1.80;;;23.80;42.20;;;;;;6169324;28;20051;-47
2022/03/30 11:33:34;;;;;;;2.20;1.70;;;23.70;42.10;;;;;;6161679;28;20055;-45
2022/03/30 11:36:38;;;;;;;2.10;1.70;;;23.70;42.00;;;;;;6123466;27;20081;-46
2022/03/30 11:39:41;;;;;;;2.60;1.98;;;23.80;42.00;;;;;;6132082;28;20234;-45
2022/03/30 11:42:44;;;;;;;2.55;1.90;;;23.80;42.00;;;;;;6166540;28;20777;-44
2022/03/30 11:45:47;;;;;;;1.98;1.58;;;23.70;41.80;;;;;;6122756;28;20533;-44
2022/03/30 11:48:50;;;;;;;4.03;1.75;;;23.70;41.70;;;;;;6111775;27;20051;-45
2022/03/30 11:51:52;;;;;;;3.33;2.22;;;23.80;41.90;;;;;;6127445;27;24886;-44
2022/03/30 11:54:55;;;;;;;1.85;1.45;;;23.80;41.90;;;;;;6082269;27;20143;-44
2022/03/30 11:58:00;;;;;;;2.45;1.73;;;23.80;41.90;;;;;;6090625;27;20043;-45
2022/03/30 12:01:04;;;;;;;2.47;1.80;;;23.80;42.00;;;;;;6093537;27;20071;-46
2022/03/30 12:04:07;;;;;;;1.75;1.42;;;23.80;42.00;;;;;;6013644;27;20044;-44
2022/03/30 12:07:14;;;;;;;3.00;1.67;;;24.00;42.10;;;;;;6066129;27;20765;-43
2022/03/30 12:10:16;;;;;;;1.90;1.70;;;23.80;42.00;;;;;;6027737;28;21189;-42
2022/03/30 12:13:23;;;;;;;5.00;1.92;;;24.00;42.10;;;;;;6058037;28;21380;-44
2022/03/30 12:16:27;;;;;;;2.08;1.77;;;23.90;42.10;;;;;;6059218;28;20994;-45
2022/03/30 12:19:29;;;;;;;2.65;2.03;;;23.90;42.20;;;;;;6108787;27;20186;-44
2022/03/30 12:22:31;;;;;;;2.15;1.60;;;23.90;42.00;;;;;;6112236;27;20052;-45
2022/03/30 12:25:34;;;;;;;2.67;1.98;;;23.90;42.00;;;;;;6089330;27;20062;-46
2022/03/30 12:28:36;;;;;;;3.17;1.70;;;23.90;42.00;;;;;;6064525;27;20046;-43
2022/03/30 12:31:40;;;;;;;2.72;1.40;;;24.00;42.10;;;;;;6121506;27;20047;-45
2022/03/30 12:34:44;;;;;;;3.75;2.05;;;23.90;42.00;;;;;;6069044;27;20092;-41
2022/03/30 12:37:48;;;;;;;3.13;1.85;;;23.90;42.00;;;;;;6016817;27;21397;-43
2022/03/30 12:40:53;;;;;;;2.13;1.60;;;24.00;42.10;;;;;;6083079;27;20035;-43
2022/03/30 12:43:58;;;;;;;2.70;1.73;;;24.00;42.10;;;;;;6048517;28;20126;-44
2022/03/30 12:47:02;;;;;;;2.22;1.73;;;24.00;42.20;;;;;;6049324;28;20054;-45
2022/03/30 12:50:09;;;;;;;2.03;1.40;;;24.00;42.00;;;;;;6096040;27;20053;-45
2022/03/30 12:53:15;;;;;;;1.92;1.60;;;24.10;42.00;;;;;;6058721;28;20126;-43
2022/03/30 12:56:20;;;;;;;2.30;1.73;;;24.10;42.00;;;;;;6047294;28;20624;-44
2022/03/30 12:59:28;;;;;;;1.63;1.40;;;24.10;42.00;;;;;;6026081;28;21846;-45
2022/03/30 13:02:32;;;;;;;1.85;1.45;;;24.00;41.90;;;;;;6057574;27;20059;-44
2022/03/30 13:05:34;;;;;;;2.08;1.67;;;24.10;42.50;;;;;;6029981;28;20036;-45
2022/03/30 13:08:37;;;;;;;2.40;1.90;;;24.00;42.40;;;;;;6038030;27;20120;-44
2022/03/30 13:11:41;;;;;;;2.30;1.85;;;24.00;41.80;;;;;;6062994;27;20044;-45
2022/03/30 13:14:49;;;;;;;1.77;1.40;;;24.00;41.80;;;;;;6038237;28;20048;-44
2022/03/30 13:17:57;;;;;;;1.55;1.45;;;24.00;41.60;;;;;;6003498;28;20051;-44
2022/03/30 13:21:01;;;;;;;3.40;1.65;;;24.00;41.60;;;;;;6054591;28;20042;-43
2022/03/30 13:24:10;;;;;;;1.88;1.50;;;24.00;41.60;;;;;;6004548;27;20052;-44
2022/03/30 13:27:12;;;;;;;2.50;1.98;;;24.00;42.20;;;;;;6017321;27;20036;-43
2022/03/30 13:30:14;;;;;;;1.73;1.40;;;24.00;41.50;;;;;;6094185;27;20151;-43
2022/03/30 13:33:16;;;;;;;2.38;1.73;;;24.00;41.50;;;;;;6074497;27;20091;-46
2022/03/30 13:36:23;;;;;;;1.73;1.30;;;24.00;41.50;;;;;;6053895;27;20052;-43
2022/03/30 13:39:25;;;;;;;1.48;1.27;;;24.00;41.50;;;;;;6070057;27;20150;-44
2022/03/30 13:42:27;;;;;;;2.42;1.48;;;24.00;41.50;;;;;;6086311;27;20059;-43
2022/03/30 13:45:28;;;;;;;1.85;1.55;;;24.00;41.40;;;;;;6044766;27;21287;-43
2022/03/30 13:48:30;;;;;;;5.55;3.65;;;24.00;41.50;;;;;;6085591;27;20644;-42
2022/03/30 13:51:35;;;;;;;8.30;6.50;;;24.00;41.30;;;;;;6071265;27;20098;-44
2022/03/30 13:54:36;;;;;;;6.45;4.93;;;23.90;41.20;;;;;;6043506;27;21960;-44
2022/03/30 13:57:38;;;;;;;5.20;4.13;;;23.90;41.10;;;;;;6057978;27;20167;-44
2022/03/30 14:00:39;;;;;;;8.75;5.28;;;23.90;41.00;;;;;;6084529;27;22751;-44
2022/03/30 14:03:41;;;;;;;9.20;4.65;;;24.00;41.10;;;;;;6075221;27;21978;-43
2022/03/30 14:06:44;;;;;;;8.90;6.03;;;24.00;41.00;;;;;;5996783;28;20069;-43
2022/03/30 14:09:45;;;;;;;9.95;5.78;;;24.00;40.90;;;;;;6063449;27;21422;-44
2022/03/30 14:12:47;;;;;;;9.63;6.65;;;24.00;40.80;;;;;;6084668;27;20047;-43
2022/03/30 14:15:55;;;;;;;10.00;6.82;;;24.00;40.60;;;;;;6088837;27;20113;-43
2022/03/30 14:18:56;;;;;;;9.85;7.72;;;23.90;40.60;;;;;;6109807;27;20040;-43
2022/03/30 14:21:59;;;;;;;9.98;7.30;;;23.90;40.40;;;;;;6092599;28;21165;-43
2022/03/30 14:25:02;;;;;;;8.48;6.22;;;23.90;40.30;;;;;;6088416;27;20039;-43
2022/03/30 14:28:06;;;;;;;10.57;7.90;;;23.90;40.20;;;;;;6054345;28;20043;-43
2022/03/30 14:31:08;;;;;;;11.15;6.75;;;23.90;40.20;;;;;;6103241;27;20150;-43
2022/03/30 14:34:10;;;;;;;9.00;6.65;;;23.90;40.10;;;;;;6084331;27;20264;-43
2022/03/30 14:37:12;;;;;;;7.78;5.75;;;23.90;40.10;;;;;;6067998;28;20393;-43
2022/03/30 14:40:14;;;;;;;9.38;7.63;;;23.90;40.20;;;;;;6096258;28;20157;-43
2022/03/30 14:43:16;;;;;;;10.65;6.97;;;23.90;40.10;;;;;;6121243;27;20044;-44
2022/03/30 14:46:17;;;;;;;8.75;6.45;;;23.90;40.30;;;;;;6059974;27;21080;-45
2022/03/30 14:49:19;;;;;;;9.02;7.18;;;23.80;40.40;;;;;;6115076;27;20059;-43
2022/03/30 14:52:21;;;;;;;10.15;8.10;;;23.80;40.50;;;;;;6052174;28;20051;-45
2022/03/30 14:55:23;;;;;;;7.97;5.95;;;23.80;40.80;;;;;;6095327;28;20047;-42
2022/03/30 14:58:25;;;;;;;7.80;6.18;;;23.80;40.80;;;;;;6105725;28;20235;-43
2022/03/30 15:01:26;;;;;;;9.25;7.15;;;23.80;40.90;;;;;;6066073;28;20040;-44
2022/03/30 15:04:28;;;;;;;11.48;6.65;;;23.80;40.90;;;;;;6036480;27;21475;-41
2022/03/30 15:07:30;;;;;;;7.70;5.63;;;23.80;41.00;;;;;;6091489;27;20078;-42
2022/03/30 15:10:32;;;;;;;7.55;5.47;;;23.70;40.40;;;;;;6129084;27;20069;-42
2022/03/30 15:13:33;;;;;;;5.05;4.55;;;23.80;41.00;;;;;;6082015;28;20040;-44
2022/03/30 15:16:35;;;;;;;10.32;5.93;;;23.80;41.00;;;;;;6076327;27;21299;-46
2022/03/30 15:19:37;;;;;;;9.40;5.75;;;23.80;40.90;;;;;;6136389;27;20042;-44
2022/03/30 15:22:40;;;;;;;7.55;5.13;;;23.80;40.90;;;;;;6096121;27;21324;-42
2022/03/30 15:25:42;;;;;;;5.78;4.25;;;23.90;40.90;;;;;;6083556;28;20039;-41
2022/03/30 15:28:44;;;;;;;7.00;4.60;;;23.90;40.90;;;;;;6101108;28;20035;-44
2022/03/30 15:31:45;;;;;;;6.95;4.35;;;23.90;40.70;;;;;;6107143;27;20044;-42
2022/03/30 15:34:47;;;;;;;3.85;3.03;;;23.80;40.60;;;;;;6101868;27;20153;-45
2022/03/30 15:37:49;;;;;;;3.42;2.45;;;24.00;40.60;;;;;;6129981;27;20176;-43
2022/03/30 15:40:51;;;;;;;3.40;2.33;;;23.90;40.50;;;;;;6109336;27;20036;-41
2022/03/30 15:43:53;;;;;;;2.05;1.83;;;24.00;40.40;;;;;;6134499;27;20048;-44
2022/03/30 15:46:54;;;;;;;3.78;2.30;;;24.00;40.50;;;;;;6112886;28;20040;-43
2022/03/30 15:49:56;;;;;;;3.25;1.90;;;24.00;40.20;;;;;;6123930;27;20050;-43
2022/03/30 15:52:58;;;;;;;2.35;1.88;;;24.00;40.10;;;;;;6142081;27;20051;-42
2022/03/30 15:56:00;;;;;;;2.88;1.75;;;24.00;40.00;;;;;;6169684;28;20071;-42
2022/03/30 15:59:04;;;;;;;2.05;1.70;;;24.00;39.80;;;;;;6171937;27;20090;-43
2022/03/30 16:02:06;;;;;;;2.53;1.80;;;23.90;39.70;;;;;;6141940;27;20043;-43
2022/03/30 16:05:08;;;;;;;2.05;1.60;;;24.00;39.70;;;;;;6131233;27;20144;-42